AirNav   Everest Fuels
 
 1029 users online  

OK78 Delozier Airport
Chelsea, Oklahoma, USA

GOING TO CHELSEA?


FAA INFORMATION EFFECTIVE 03 NOVEMBER 2022

Location

FAA Identifier: OK78
Lat/Long: 36-33-32.7850N 095-25-54.1000W
36-33.546417N 095-25.901667W
36.5591069,-95.4316944
(estimated)
Elevation: 750 ft. / 229 m (estimated)
From city: 1 mile N of CHELSEA, OK
Time zone: UTC -6 (UTC -5 during Daylight Saving Time)
Zip code: 74016

Airport Operations

Airport use: Private use. Permission required prior to landing
Activation date: 10/2018
Control tower: no
ARTCC: KANSAS CITY CENTER
FSS: MC ALESTER FLIGHT SERVICE STATION
Attendance: 
Wind indicator: yes
Segmented circle: no

Airport Communications

WX AWOS-3P at GCM (16 nm S): 119.925 (918-343-0184)

Nearby radio navigation aids

VOR radial/distance  VOR name  Freq  Var
TULr030/27.8TULSA VORTAC114.4008E
BVOr112/32.7BARTLESVILLE VOR/DME117.9008E

Airport Services

Runway Information

Runway 18/36

Dimensions: 2600 x 65 ft. / 792 x 20 m
Surface: turf, in good condition
RUNWAY 18  RUNWAY 36
Traffic pattern: leftleft

Runway 13/31

Dimensions: 1800 x 60 ft. / 549 x 18 m
Surface: turf, in good condition
RUNWAY 13  RUNWAY 31
Traffic pattern: leftleft

Airport Ownership and Management from official FAA records

Ownership: Privately-owned
Owner: MARK DELOZIER
3531 S 4250 ROAD
CHELSEA, OK 74016
Phone 918-636-1808
Manager: ROBERT HANNEMAN
16265 AVIAN AVE
CLAREMORE, OK 74017
Phone 918-398-1014

Airport Operational Statistics

Aircraft based on the field: 1
Single engine airplanes: 1
    

Instrument Procedures

There are no published instrument procedures at OK78.

Some nearby airports with instrument procedures:

KGCM - Claremore Regional Airport (16 nm S)
1K8 - South Grand Lake Regional Airport (20 nm E)
H71 - Mid-America Industrial Airport (21 nm S)
KBVO - Bartlesville Municipal Airport (30 nm NW)
KTUL - Tulsa International Airport (31 nm SW)
 
Loc | Ops | Rwys | IFR | FBO | Links
Com | Nav | Svcs | Stats | Notes
Aerial photo
No photo
 
Airport distance calculator
Flying to Delozier Airport? Find the distance to fly.

From to OK78

Sunrise and sunset
Times for 29-Nov-2022
 Local
(UTC-6)
 Zulu
(UTC)
Morning civil twilight06:4612:46
Sunrise07:1413:14
Sunset17:0623:06
Evening civil twilight17:3423:34

Current date and time
Zulu (UTC)  30-Nov-2022 01:18:52
Local (UTC-6)  29-Nov-2022 19:18:52
 
METAR
KGCM 
16nm S 
300055Z AUTO 33011G23KT 290V360 10SM SCT023 04/M01 A2995 RMK AO2
KH71 
21nm S 
300055Z AUTO 32016G21KT 10SM CLR 04/M01 A2995 RMK AO2
KTUL 
31nm SW 
300053Z 32014KT 10SM SCT025 03/M01 A2998 RMK AO2 PK WND 32028/0013 PRESRR SLP151 T00331011
KBVO 
31nm NW 
300053Z AUTO 35010G20KT 10SM OVC027 02/M03 A3000 RMK AO2 PK WND 35026/0023 PRESRR SLP157 T00221033
TAF
KTUL 
31nm SW 
291959Z 2920/3018 31019G28KT P6SM SKC FM292300 32018G27KT P6SM SCT030 FM300200 33015G25KT P6SM BKN120 FM300600 34010KT P6SM SKC
KBVO 
31nm NW 
291740Z 2918/3018 26014G24KT P6SM SKC FM292000 32012G21KT P6SM SCT025 TEMPO 2921/3001 BKN022 FM300200 33012G20KT P6SM BKN100 FM300600 34008KT P6SM SKC
NOTAMs
Click for the latest NOTAMs
NOTAMs are issued by the DoD/FAA and will open in a separate window not controlled by AirNav.

 

 
 

Would you like to see your business listed on this page?

 If your business provides an interesting product or service to pilots, flight crews, aircraft, or users of the Delozier Airport, you should consider listing it here.  To start the listing process, click on the button below
 
Add a business
 

Other Pages about Delozier Airport

Update a link
 
Copyright © AirNav, LLC. All rights reserved. Privacy Policy  Contact